sensor_id;sensor_type;location;lat;lon;timestamp;P1;durP1;ratioP1;P2;durP2;ratioP2
55756;SDS011;41676;44.610;44.078;2022-07-22T00:02:29;9.30;;;4.47;;
55756;SDS011;41676;44.610;44.078;2022-07-22T00:07:30;6.85;;;3.80;;
55756;SDS011;41676;44.610;44.078;2022-07-22T00:12:31;6.30;;;3.80;;
55756;SDS011;41676;44.610;44.078;2022-07-22T00:17:32;8.65;;;4.45;;
55756;SDS011;41676;44.610;44.078;2022-07-22T00:22:32;7.13;;;4.10;;
55756;SDS011;41676;44.610;44.078;2022-07-22T00:27:33;10.68;;;4.50;;
55756;SDS011;41676;44.610;44.078;2022-07-22T00:32:34;6.35;;;4.55;;
55756;SDS011;41676;44.610;44.078;2022-07-22T00:37:35;8.35;;;4.50;;
55756;SDS011;41676;44.610;44.078;2022-07-22T00:42:36;5.88;;;3.97;;
55756;SDS011;41676;44.610;44.078;2022-07-22T00:47:37;14.82;;;5.30;;
55756;SDS011;41676;44.610;44.078;2022-07-22T00:52:38;7.53;;;4.70;;
55756;SDS011;41676;44.610;44.078;2022-07-22T00:57:39;20.73;;;4.93;;
55756;SDS011;41676;44.610;44.078;2022-07-22T01:02:41;16.90;;;4.90;;
55756;SDS011;41676;44.610;44.078;2022-07-22T01:07:42;23.60;;;6.13;;
55756;SDS011;41676;44.610;44.078;2022-07-22T01:12:42;7.70;;;4.55;;
55756;SDS011;41676;44.610;44.078;2022-07-22T01:17:43;8.43;;;4.35;;
55756;SDS011;41676;44.610;44.078;2022-07-22T01:22:44;8.73;;;4.45;;
55756;SDS011;41676;44.610;44.078;2022-07-22T01:27:45;17.65;;;5.10;;
55756;SDS011;41676;44.610;44.078;2022-07-22T01:32:46;40.15;;;7.13;;
55756;SDS011;41676;44.610;44.078;2022-07-22T01:37:47;10.35;;;4.50;;
55756;SDS011;41676;44.610;44.078;2022-07-22T01:42:47;8.23;;;5.05;;
55756;SDS011;41676;44.610;44.078;2022-07-22T01:47:48;6.60;;;4.85;;
55756;SDS011;41676;44.610;44.078;2022-07-22T01:52:49;10.70;;;4.72;;
55756;SDS011;41676;44.610;44.078;2022-07-22T01:57:50;6.93;;;4.35;;
55756;SDS011;41676;44.610;44.078;2022-07-22T02:02:51;9.68;;;4.50;;
55756;SDS011;41676;44.610;44.078;2022-07-22T02:07:51;9.70;;;4.68;;
55756;SDS011;41676;44.610;44.078;2022-07-22T02:12:52;9.65;;;5.10;;
55756;SDS011;41676;44.610;44.078;2022-07-22T02:17:53;7.80;;;4.80;;
55756;SDS011;41676;44.610;44.078;2022-07-22T02:22:55;7.88;;;4.75;;
55756;SDS011;41676;44.610;44.078;2022-07-22T02:27:55;20.00;;;4.82;;
55756;SDS011;41676;44.610;44.078;2022-07-22T02:32:56;15.35;;;4.80;;
55756;SDS011;41676;44.610;44.078;2022-07-22T02:37:57;12.63;;;5.07;;
55756;SDS011;41676;44.610;44.078;2022-07-22T02:42:58;8.70;;;4.78;;
55756;SDS011;41676;44.610;44.078;2022-07-22T02:48:00;11.05;;;5.45;;
55756;SDS011;41676;44.610;44.078;2022-07-22T02:53:00;8.52;;;4.82;;
55756;SDS011;41676;44.610;44.078;2022-07-22T02:58:05;8.00;;;5.15;;
55756;SDS011;41676;44.610;44.078;2022-07-22T03:03:06;10.15;;;4.85;;
55756;SDS011;41676;44.610;44.078;2022-07-22T03:08:07;15.52;;;5.57;;
55756;SDS011;41676;44.610;44.078;2022-07-22T03:13:08;9.30;;;4.97;;
55756;SDS011;41676;44.610;44.078;2022-07-22T03:18:09;7.57;;;4.75;;
55756;SDS011;41676;44.610;44.078;2022-07-22T03:23:10;8.88;;;4.32;;
55756;SDS011;41676;44.610;44.078;2022-07-22T03:28:10;8.30;;;4.40;;
55756;SDS011;41676;44.610;44.078;2022-07-22T03:33:11;12.48;;;5.20;;
55756;SDS011;41676;44.610;44.078;2022-07-22T03:38:12;24.38;;;5.78;;
55756;SDS011;41676;44.610;44.078;2022-07-22T03:43:13;9.73;;;4.47;;
55756;SDS011;41676;44.610;44.078;2022-07-22T03:48:14;8.02;;;3.97;;
55756;SDS011;41676;44.610;44.078;2022-07-22T03:53:15;7.85;;;4.28;;
55756;SDS011;41676;44.610;44.078;2022-07-22T03:58:16;9.88;;;3.92;;
55756;SDS011;41676;44.610;44.078;2022-07-22T04:03:18;10.05;;;4.00;;
55756;SDS011;41676;44.610;44.078;2022-07-22T04:08:19;12.98;;;4.07;;
55756;SDS011;41676;44.610;44.078;2022-07-22T04:13:20;10.55;;;4.30;;
55756;SDS011;41676;44.610;44.078;2022-07-22T04:18:21;8.18;;;3.97;;
55756;SDS011;41676;44.610;44.078;2022-07-22T04:23:21;16.65;;;4.18;;
55756;SDS011;41676;44.610;44.078;2022-07-22T04:28:22;6.68;;;4.05;;
55756;SDS011;41676;44.610;44.078;2022-07-22T04:33:23;9.25;;;4.00;;
55756;SDS011;41676;44.610;44.078;2022-07-22T04:38:24;8.85;;;4.05;;
55756;SDS011;41676;44.610;44.078;2022-07-22T04:43:25;8.50;;;4.45;;
55756;SDS011;41676;44.610;44.078;2022-07-22T04:48:26;8.27;;;3.97;;
55756;SDS011;41676;44.610;44.078;2022-07-22T04:53:27;7.95;;;3.88;;
55756;SDS011;41676;44.610;44.078;2022-07-22T04:58:27;7.80;;;3.40;;
55756;SDS011;41676;44.610;44.078;2022-07-22T05:03:29;6.65;;;4.10;;
55756;SDS011;41676;44.610;44.078;2022-07-22T05:08:30;8.70;;;3.90;;
55756;SDS011;41676;44.610;44.078;2022-07-22T05:13:31;7.65;;;3.72;;
55756;SDS011;41676;44.610;44.078;2022-07-22T05:18:32;8.07;;;3.40;;
55756;SDS011;41676;44.610;44.078;2022-07-22T05:23:33;10.80;;;3.38;;
55756;SDS011;41676;44.610;44.078;2022-07-22T05:28:34;7.15;;;3.35;;
55756;SDS011;41676;44.610;44.078;2022-07-22T05:33:35;5.68;;;3.03;;
55756;SDS011;41676;44.610;44.078;2022-07-22T05:38:36;5.03;;;2.92;;
55756;SDS011;41676;44.610;44.078;2022-07-22T05:43:36;5.72;;;3.40;;
55756;SDS011;41676;44.610;44.078;2022-07-22T05:48:37;9.88;;;3.22;;
55756;SDS011;41676;44.610;44.078;2022-07-22T05:53:38;6.03;;;3.10;;
55756;SDS011;41676;44.610;44.078;2022-07-22T05:58:40;5.88;;;2.90;;
55756;SDS011;41676;44.610;44.078;2022-07-22T06:03:42;9.23;;;3.23;;
55756;SDS011;41676;44.610;44.078;2022-07-22T06:08:43;6.32;;;2.97;;
55756;SDS011;41676;44.610;44.078;2022-07-22T06:13:44;5.10;;;2.63;;
55756;SDS011;41676;44.610;44.078;2022-07-22T06:18:45;5.97;;;3.03;;
55756;SDS011;41676;44.610;44.078;2022-07-22T06:23:46;7.93;;;3.00;;
55756;SDS011;41676;44.610;44.078;2022-07-22T06:28:46;3.80;;;3.00;;
55756;SDS011;41676;44.610;44.078;2022-07-22T06:33:47;7.63;;;2.67;;
55756;SDS011;41676;44.610;44.078;2022-07-22T06:38:48;8.02;;;2.83;;
55756;SDS011;41676;44.610;44.078;2022-07-22T06:43:49;5.78;;;2.55;;
55756;SDS011;41676;44.610;44.078;2022-07-22T06:48:49;8.93;;;2.90;;
55756;SDS011;41676;44.610;44.078;2022-07-22T06:53:50;6.32;;;2.63;;
55756;SDS011;41676;44.610;44.078;2022-07-22T06:58:51;5.15;;;2.78;;
55756;SDS011;41676;44.610;44.078;2022-07-22T07:03:52;11.13;;;3.22;;
55756;SDS011;41676;44.610;44.078;2022-07-22T07:08:53;4.50;;;2.80;;
55756;SDS011;41676;44.610;44.078;2022-07-22T07:13:54;7.05;;;3.10;;
55756;SDS011;41676;44.610;44.078;2022-07-22T07:18:55;4.25;;;2.78;;
55756;SDS011;41676;44.610;44.078;2022-07-22T07:23:56;6.03;;;2.50;;
55756;SDS011;41676;44.610;44.078;2022-07-22T07:28:56;17.77;;;2.50;;
55756;SDS011;41676;44.610;44.078;2022-07-22T07:33:57;4.82;;;2.72;;
55756;SDS011;41676;44.610;44.078;2022-07-22T07:38:58;3.83;;;2.50;;
55756;SDS011;41676;44.610;44.078;2022-07-22T07:43:59;5.95;;;2.78;;
55756;SDS011;41676;44.610;44.078;2022-07-22T07:49:00;7.72;;;3.00;;
55756;SDS011;41676;44.610;44.078;2022-07-22T07:54:00;8.10;;;2.58;;
55756;SDS011;41676;44.610;44.078;2022-07-22T07:59:02;7.70;;;2.85;;
55756;SDS011;41676;44.610;44.078;2022-07-22T08:04:03;6.10;;;2.40;;
55756;SDS011;41676;44.610;44.078;2022-07-22T08:09:04;5.72;;;2.28;;
55756;SDS011;41676;44.610;44.078;2022-07-22T08:14:04;8.30;;;2.38;;
55756;SDS011;41676;44.610;44.078;2022-07-22T08:19:05;4.50;;;2.00;;
55756;SDS011;41676;44.610;44.078;2022-07-22T08:24:06;6.28;;;1.98;;
55756;SDS011;41676;44.610;44.078;2022-07-22T08:29:09;5.25;;;2.50;;
55756;SDS011;41676;44.610;44.078;2022-07-22T08:34:11;3.63;;;2.00;;
55756;SDS011;41676;44.610;44.078;2022-07-22T08:39:11;13.23;;;3.05;;
55756;SDS011;41676;44.610;44.078;2022-07-22T08:44:12;11.38;;;2.67;;
55756;SDS011;41676;44.610;44.078;2022-07-22T08:49:14;5.28;;;2.00;;
55756;SDS011;41676;44.610;44.078;2022-07-22T08:54:15;4.07;;;1.80;;
55756;SDS011;41676;44.610;44.078;2022-07-22T08:59:16;5.03;;;2.10;;
55756;SDS011;41676;44.610;44.078;2022-07-22T09:04:17;4.63;;;2.00;;
55756;SDS011;41676;44.610;44.078;2022-07-22T09:09:18;8.65;;;2.28;;
55756;SDS011;41676;44.610;44.078;2022-07-22T09:14:44;4.10;;;2.03;;
55756;SDS011;41676;44.610;44.078;2022-07-22T09:19:49;20.10;;;2.65;;
55756;SDS011;41676;44.610;44.078;2022-07-22T09:24:50;8.13;;;2.20;;
55756;SDS011;41676;44.610;44.078;2022-07-22T09:29:50;3.85;;;1.98;;
55756;SDS011;41676;44.610;44.078;2022-07-22T09:35:01;5.83;;;2.20;;
55756;SDS011;41676;44.610;44.078;2022-07-22T09:40:13;7.15;;;1.90;;
55756;SDS011;41676;44.610;44.078;2022-07-22T09:45:15;5.47;;;1.95;;
55756;SDS011;41676;44.610;44.078;2022-07-22T09:50:17;3.55;;;1.75;;
55756;SDS011;41676;44.610;44.078;2022-07-22T09:55:22;7.47;;;2.20;;
55756;SDS011;41676;44.610;44.078;2022-07-22T10:00:24;4.47;;;2.22;;
55756;SDS011;41676;44.610;44.078;2022-07-22T10:05:27;4.10;;;2.00;;
55756;SDS011;41676;44.610;44.078;2022-07-22T10:10:31;5.15;;;2.10;;
55756;SDS011;41676;44.610;44.078;2022-07-22T10:15:34;7.00;;;2.00;;
55756;SDS011;41676;44.610;44.078;2022-07-22T10:20:36;4.37;;;1.80;;
55756;SDS011;41676;44.610;44.078;2022-07-22T10:25:53;3.58;;;1.83;;
55756;SDS011;41676;44.610;44.078;2022-07-22T10:36:30;6.97;;;2.22;;
55756;SDS011;41676;44.610;44.078;2022-07-22T10:46:47;3.97;;;1.90;;
55756;SDS011;41676;44.610;44.078;2022-07-22T10:57:08;2.40;;;1.73;;
55756;SDS011;41676;44.610;44.078;2022-07-22T11:02:09;4.00;;;1.90;;
55756;SDS011;41676;44.610;44.078;2022-07-22T11:07:16;6.88;;;1.88;;
55756;SDS011;41676;44.610;44.078;2022-07-22T11:12:17;12.10;;;2.13;;
55756;SDS011;41676;44.610;44.078;2022-07-22T11:17:18;3.42;;;1.92;;
55756;SDS011;41676;44.610;44.078;2022-07-22T11:22:23;4.13;;;1.73;;
55756;SDS011;41676;44.610;44.078;2022-07-22T11:27:24;8.95;;;2.13;;
55756;SDS011;41676;44.610;44.078;2022-07-22T11:32:26;9.75;;;2.45;;
55756;SDS011;41676;44.610;44.078;2022-07-22T11:37:31;6.82;;;1.80;;
55756;SDS011;41676;44.610;44.078;2022-07-22T11:42:32;4.80;;;2.20;;
55756;SDS011;41676;44.610;44.078;2022-07-22T11:47:33;4.50;;;1.80;;
55756;SDS011;41676;44.610;44.078;2022-07-22T11:52:34;3.15;;;1.88;;
55756;SDS011;41676;44.610;44.078;2022-07-22T11:57:45;2.45;;;1.73;;
55756;SDS011;41676;44.610;44.078;2022-07-22T12:02:47;7.67;;;1.93;;
55756;SDS011;41676;44.610;44.078;2022-07-22T12:07:48;3.03;;;1.95;;
55756;SDS011;41676;44.610;44.078;2022-07-22T12:12:48;3.55;;;2.00;;
55756;SDS011;41676;44.610;44.078;2022-07-22T12:17:49;2.90;;;1.83;;
55756;SDS011;41676;44.610;44.078;2022-07-22T12:22:50;3.15;;;2.00;;
55756;SDS011;41676;44.610;44.078;2022-07-22T12:28:00;3.75;;;1.90;;
55756;SDS011;41676;44.610;44.078;2022-07-22T12:33:02;3.03;;;1.77;;
55756;SDS011;41676;44.610;44.078;2022-07-22T12:38:07;4.00;;;1.92;;
55756;SDS011;41676;44.610;44.078;2022-07-22T12:43:09;6.07;;;1.90;;
55756;SDS011;41676;44.610;44.078;2022-07-22T12:48:10;4.60;;;1.92;;
55756;SDS011;41676;44.610;44.078;2022-07-22T12:53:13;3.92;;;2.08;;
55756;SDS011;41676;44.610;44.078;2022-07-22T12:58:16;4.10;;;2.00;;
55756;SDS011;41676;44.610;44.078;2022-07-22T13:03:17;4.82;;;2.30;;
55756;SDS011;41676;44.610;44.078;2022-07-22T13:08:19;4.67;;;2.30;;
55756;SDS011;41676;44.610;44.078;2022-07-22T13:13:20;7.15;;;2.08;;
55756;SDS011;41676;44.610;44.078;2022-07-22T13:18:22;3.20;;;1.93;;
55756;SDS011;41676;44.610;44.078;2022-07-22T13:23:23;4.10;;;1.83;;
55756;SDS011;41676;44.610;44.078;2022-07-22T13:28:25;5.32;;;1.95;;
55756;SDS011;41676;44.610;44.078;2022-07-22T13:33:26;11.68;;;2.97;;
55756;SDS011;41676;44.610;44.078;2022-07-22T13:38:26;8.68;;;3.13;;
55756;SDS011;41676;44.610;44.078;2022-07-22T13:43:27;7.43;;;2.92;;
55756;SDS011;41676;44.610;44.078;2022-07-22T13:48:29;10.50;;;3.20;;
55756;SDS011;41676;44.610;44.078;2022-07-22T13:53:30;9.48;;;4.35;;
55756;SDS011;41676;44.610;44.078;2022-07-22T13:58:31;20.77;;;12.65;;
55756;SDS011;41676;44.610;44.078;2022-07-22T14:03:32;78.75;;;48.28;;
55756;SDS011;41676;44.610;44.078;2022-07-22T14:08:33;38.55;;;21.67;;
55756;SDS011;41676;44.610;44.078;2022-07-22T14:13:34;13.18;;;7.78;;
55756;SDS011;41676;44.610;44.078;2022-07-22T14:18:34;15.57;;;7.60;;
55756;SDS011;41676;44.610;44.078;2022-07-22T14:23:35;20.65;;;12.30;;
55756;SDS011;41676;44.610;44.078;2022-07-22T14:28:36;14.63;;;9.32;;
55756;SDS011;41676;44.610;44.078;2022-07-22T14:33:37;18.33;;;7.47;;
55756;SDS011;41676;44.610;44.078;2022-07-22T14:38:38;14.15;;;7.03;;
55756;SDS011;41676;44.610;44.078;2022-07-22T14:43:39;12.07;;;6.05;;
55756;SDS011;41676;44.610;44.078;2022-07-22T14:48:40;7.18;;;3.72;;
55756;SDS011;41676;44.610;44.078;2022-07-22T14:53:41;7.43;;;3.40;;
55756;SDS011;41676;44.610;44.078;2022-07-22T14:58:42;14.15;;;3.40;;
55756;SDS011;41676;44.610;44.078;2022-07-22T15:03:43;7.07;;;2.90;;
55756;SDS011;41676;44.610;44.078;2022-07-22T15:08:44;23.05;;;3.60;;
55756;SDS011;41676;44.610;44.078;2022-07-22T15:13:45;8.80;;;3.00;;
55756;SDS011;41676;44.610;44.078;2022-07-22T15:18:45;5.20;;;3.40;;
55756;SDS011;41676;44.610;44.078;2022-07-22T15:23:46;25.60;;;3.63;;
55756;SDS011;41676;44.610;44.078;2022-07-22T15:28:48;14.60;;;3.95;;
55756;SDS011;41676;44.610;44.078;2022-07-22T15:33:51;14.15;;;4.53;;
55756;SDS011;41676;44.610;44.078;2022-07-22T15:38:52;11.50;;;4.03;;
55756;SDS011;41676;44.610;44.078;2022-07-22T15:43:53;6.20;;;4.28;;
55756;SDS011;41676;44.610;44.078;2022-07-22T15:48:54;6.15;;;4.22;;
55756;SDS011;41676;44.610;44.078;2022-07-22T15:53:55;7.60;;;5.10;;
55756;SDS011;41676;44.610;44.078;2022-07-22T15:58:56;6.32;;;4.32;;
55756;SDS011;41676;44.610;44.078;2022-07-22T16:04:15;4.65;;;3.58;;
55756;SDS011;41676;44.610;44.078;2022-07-22T16:09:15;9.20;;;4.00;;
55756;SDS011;41676;44.610;44.078;2022-07-22T16:14:16;5.82;;;3.90;;
55756;SDS011;41676;44.610;44.078;2022-07-22T16:19:17;11.27;;;4.13;;
55756;SDS011;41676;44.610;44.078;2022-07-22T16:24:18;8.00;;;4.43;;
55756;SDS011;41676;44.610;44.078;2022-07-22T16:29:19;13.85;;;5.05;;
55756;SDS011;41676;44.610;44.078;2022-07-22T16:34:19;13.23;;;4.63;;
55756;SDS011;41676;44.610;44.078;2022-07-22T16:39:20;13.68;;;4.57;;
55756;SDS011;41676;44.610;44.078;2022-07-22T16:44:21;9.63;;;5.10;;
55756;SDS011;41676;44.610;44.078;2022-07-22T16:49:22;17.80;;;6.35;;
55756;SDS011;41676;44.610;44.078;2022-07-22T16:54:23;12.80;;;7.28;;
55756;SDS011;41676;44.610;44.078;2022-07-22T16:59:24;13.43;;;8.27;;
55756;SDS011;41676;44.610;44.078;2022-07-22T17:04:25;14.57;;;9.43;;
55756;SDS011;41676;44.610;44.078;2022-07-22T17:09:25;22.65;;;10.52;;
55756;SDS011;41676;44.610;44.078;2022-07-22T17:14:27;25.95;;;11.30;;
55756;SDS011;41676;44.610;44.078;2022-07-22T17:19:28;16.20;;;10.80;;
55756;SDS011;41676;44.610;44.078;2022-07-22T17:24:29;20.83;;;11.85;;
55756;SDS011;41676;44.610;44.078;2022-07-22T17:29:30;26.20;;;12.57;;
55756;SDS011;41676;44.610;44.078;2022-07-22T17:34:31;28.40;;;12.20;;
55756;SDS011;41676;44.610;44.078;2022-07-22T17:39:32;17.85;;;12.07;;
55756;SDS011;41676;44.610;44.078;2022-07-22T17:44:33;20.98;;;12.05;;
55756;SDS011;41676;44.610;44.078;2022-07-22T17:49:34;16.60;;;11.95;;
55756;SDS011;41676;44.610;44.078;2022-07-22T17:54:35;23.90;;;12.00;;
55756;SDS011;41676;44.610;44.078;2022-07-22T17:59:35;18.38;;;11.07;;
55756;SDS011;41676;44.610;44.078;2022-07-22T18:04:36;18.25;;;13.75;;
55756;SDS011;41676;44.610;44.078;2022-07-22T18:09:37;24.27;;;15.27;;
55756;SDS011;41676;44.610;44.078;2022-07-22T18:14:38;23.00;;;14.98;;
55756;SDS011;41676;44.610;44.078;2022-07-22T18:19:39;23.30;;;16.80;;
55756;SDS011;41676;44.610;44.078;2022-07-22T18:24:40;27.80;;;19.02;;
55756;SDS011;41676;44.610;44.078;2022-07-22T18:29:40;31.35;;;23.10;;
55756;SDS011;41676;44.610;44.078;2022-07-22T18:34:41;30.65;;;21.98;;
55756;SDS011;41676;44.610;44.078;2022-07-22T18:39:42;29.52;;;19.90;;
55756;SDS011;41676;44.610;44.078;2022-07-22T18:44:43;22.90;;;17.58;;
55756;SDS011;41676;44.610;44.078;2022-07-22T18:49:44;28.10;;;15.43;;
55756;SDS011;41676;44.610;44.078;2022-07-22T18:54:45;15.70;;;9.70;;
55756;SDS011;41676;44.610;44.078;2022-07-22T18:59:46;16.70;;;6.40;;
55756;SDS011;41676;44.610;44.078;2022-07-22T19:04:46;11.18;;;3.85;;
55756;SDS011;41676;44.610;44.078;2022-07-22T19:09:47;11.82;;;3.35;;
55756;SDS011;41676;44.610;44.078;2022-07-22T19:14:48;4.65;;;3.03;;
55756;SDS011;41676;44.610;44.078;2022-07-22T19:19:49;7.10;;;3.40;;
55756;SDS011;41676;44.610;44.078;2022-07-22T19:24:50;12.25;;;5.20;;
55756;SDS011;41676;44.610;44.078;2022-07-22T19:29:51;12.68;;;6.20;;
55756;SDS011;41676;44.610;44.078;2022-07-22T19:34:51;16.00;;;8.98;;
55756;SDS011;41676;44.610;44.078;2022-07-22T19:39:52;23.42;;;10.85;;
55756;SDS011;41676;44.610;44.078;2022-07-22T19:44:53;16.48;;;11.50;;
55756;SDS011;41676;44.610;44.078;2022-07-22T19:49:54;18.92;;;10.85;;
55756;SDS011;41676;44.610;44.078;2022-07-22T19:54:55;15.43;;;10.77;;
55756;SDS011;41676;44.610;44.078;2022-07-22T19:59:56;16.55;;;10.50;;
55756;SDS011;41676;44.610;44.078;2022-07-22T20:04:57;22.75;;;12.80;;
55756;SDS011;41676;44.610;44.078;2022-07-22T20:09:58;16.88;;;13.63;;
55756;SDS011;41676;44.610;44.078;2022-07-22T20:14:59;24.55;;;14.20;;
55756;SDS011;41676;44.610;44.078;2022-07-22T20:19:59;16.63;;;12.45;;
55756;SDS011;41676;44.610;44.078;2022-07-22T20:25:00;15.75;;;12.43;;
55756;SDS011;41676;44.610;44.078;2022-07-22T20:30:02;14.80;;;12.05;;
55756;SDS011;41676;44.610;44.078;2022-07-22T20:35:03;20.92;;;13.10;;
55756;SDS011;41676;44.610;44.078;2022-07-22T20:40:04;16.02;;;10.70;;
55756;SDS011;41676;44.610;44.078;2022-07-22T20:45:06;12.80;;;9.65;;
55756;SDS011;41676;44.610;44.078;2022-07-22T20:50:07;19.60;;;10.68;;
55756;SDS011;41676;44.610;44.078;2022-07-22T20:55:08;11.45;;;9.38;;
55756;SDS011;41676;44.610;44.078;2022-07-22T21:00:09;16.38;;;9.80;;
55756;SDS011;41676;44.610;44.078;2022-07-22T21:05:10;12.32;;;8.60;;
55756;SDS011;41676;44.610;44.078;2022-07-22T21:10:11;12.25;;;8.57;;
55756;SDS011;41676;44.610;44.078;2022-07-22T21:15:12;14.88;;;8.20;;
55756;SDS011;41676;44.610;44.078;2022-07-22T21:20:13;11.10;;;8.00;;
55756;SDS011;41676;44.610;44.078;2022-07-22T21:25:14;10.40;;;6.65;;
55756;SDS011;41676;44.610;44.078;2022-07-22T21:30:15;13.18;;;7.13;;
55756;SDS011;41676;44.610;44.078;2022-07-22T21:35:15;16.58;;;7.18;;
55756;SDS011;41676;44.610;44.078;2022-07-22T21:40:16;11.25;;;7.45;;
55756;SDS011;41676;44.610;44.078;2022-07-22T21:45:17;20.25;;;8.13;;
55756;SDS011;41676;44.610;44.078;2022-07-22T21:50:18;11.77;;;6.78;;
55756;SDS011;41676;44.610;44.078;2022-07-22T21:55:19;9.68;;;6.90;;
55756;SDS011;41676;44.610;44.078;2022-07-22T22:00:20;11.80;;;7.60;;
55756;SDS011;41676;44.610;44.078;2022-07-22T22:05:20;12.43;;;7.35;;
55756;SDS011;41676;44.610;44.078;2022-07-22T22:10:21;11.15;;;7.38;;
55756;SDS011;41676;44.610;44.078;2022-07-22T22:15:22;10.45;;;8.00;;
55756;SDS011;41676;44.610;44.078;2022-07-22T22:20:23;12.73;;;7.13;;
55756;SDS011;41676;44.610;44.078;2022-07-22T22:25:24;13.60;;;7.22;;
55756;SDS011;41676;44.610;44.078;2022-07-22T22:30:25;9.95;;;6.88;;
55756;SDS011;41676;44.610;44.078;2022-07-22T22:35:25;7.85;;;5.97;;
55756;SDS011;41676;44.610;44.078;2022-07-22T22:40:26;12.70;;;6.03;;
55756;SDS011;41676;44.610;44.078;2022-07-22T22:45:27;8.55;;;6.57;;
55756;SDS011;41676;44.610;44.078;2022-07-22T22:50:29;10.65;;;7.00;;
55756;SDS011;41676;44.610;44.078;2022-07-22T22:55:29;9.25;;;6.85;;
55756;SDS011;41676;44.610;44.078;2022-07-22T23:00:30;10.68;;;7.20;;
55756;SDS011;41676;44.610;44.078;2022-07-22T23:05:32;21.85;;;6.85;;
55756;SDS011;41676;44.610;44.078;2022-07-22T23:10:33;9.82;;;6.75;;
55756;SDS011;41676;44.610;44.078;2022-07-22T23:15:34;10.80;;;6.20;;
55756;SDS011;41676;44.610;44.078;2022-07-22T23:20:34;8.27;;;5.93;;
55756;SDS011;41676;44.610;44.078;2022-07-22T23:25:54;9.82;;;5.57;;
55756;SDS011;41676;44.610;44.078;2022-07-22T23:30:55;11.98;;;5.72;;
55756;SDS011;41676;44.610;44.078;2022-07-22T23:35:56;15.18;;;6.20;;
55756;SDS011;41676;44.610;44.078;2022-07-22T23:40:57;6.82;;;5.15;;
55756;SDS011;41676;44.610;44.078;2022-07-22T23:46:02;11.23;;;6.00;;
55756;SDS011;41676;44.610;44.078;2022-07-22T23:51:03;8.85;;;5.53;;
55756;SDS011;41676;44.610;44.078;2022-07-22T23:56:04;8.52;;;5.93;;
